Time;durP1;ratioP1;P1;durP2;ratioP2;P2;SDS_P1;SDS_P2;PMS_P1;PMS_P2;Temp;Humidity;BMP_temperature;BMP_pressure;BME280_temperature;BME280_humidity;BME280_pressure;Samples;Min_cycle;Max_cycle;Signal;HPM_P1;HPM_P2
2024/03/26 00:01:50;;;;;;;7.70;3.30;;;7.50;99.90;;;;;;4979953;28;38122;-79
2024/03/26 00:04:23;;;;;;;10.47;3.00;;;7.50;1.00;;;;;;4955119;28;38309;-81
2024/03/26 00:06:59;;;;;;;8.00;3.65;;;7.50;99.90;;;;;;4947462;28;39284;-80
2024/03/26 00:09:33;;;;;;;6.53;2.50;;;7.50;99.90;;;;;;4972063;28;38322;-81
2024/03/26 00:12:01;;;;;;;9.20;3.27;;;7.50;1.00;;;;;;4962155;28;37853;-80
2024/03/26 00:14:43;;;;;;;14.80;3.47;;;7.40;1.00;;;;;;4942768;28;48942;-79
2024/03/26 00:17:17;;;;;;;10.20;3.30;;;7.40;1.00;;;;;;4965980;28;39565;-80
2024/03/26 00:19:45;;;;;;;12.77;3.50;;;7.40;1.00;;;;;;4962355;28;38498;-80
2024/03/26 00:22:22;;;;;;;7.73;2.50;;;7.50;90.80;;;;;;4975782;28;38557;-79
2024/03/26 00:24:58;;;;;;;9.63;2.83;;;7.50;99.90;;;;;;4968727;28;36498;-80
2024/03/26 00:27:28;;;;;;;7.97;3.17;;;7.40;55.20;;;;;;4972545;28;38758;-80
2024/03/26 00:29:58;;;;;;;9.53;2.80;;;7.40;1.00;;;;;;4980661;28;39950;-80
2024/03/26 00:32:44;;;;;;;8.73;2.70;;;7.30;99.90;;;;;;4968136;28;39566;-80
2024/03/26 00:35:26;;;;;;;8.23;2.58;;;7.30;1.00;;;;;;4968650;28;38044;-79
2024/03/26 00:38:01;;;;;;;5.17;2.37;;;7.30;99.90;;;;;;4975802;28;39604;-79
2024/03/26 00:40:41;;;;;;;14.40;3.10;;;7.30;49.40;;;;;;4971677;28;38886;-80
2024/03/26 00:43:10;;;;;;;10.17;2.70;;;7.30;99.90;;;;;;4965752;28;39310;-81
2024/03/26 00:45:43;;;;;;;5.33;2.80;;;7.40;1.00;;;;;;4980794;28;38734;-80
2024/03/26 00:48:13;;;;;;;9.07;2.90;;;7.30;1.00;;;;;;4945463;28;39622;-80
2024/03/26 00:50:45;;;;;;;7.37;2.90;;;7.30;99.90;;;;;;4956168;28;39056;-79
2024/03/26 00:53:26;;;;;;;8.13;3.05;;;7.20;1.00;;;;;;4963202;28;38419;-79
2024/03/26 00:55:57;;;;;;;7.53;2.80;;;7.20;1.00;;;;;;4971086;28;36964;-79
2024/03/26 00:58:25;;;;;;;7.63;2.90;;;7.10;1.00;;;;;;4968637;28;39278;-81
2024/03/26 01:00:52;;;;;;;8.33;2.80;;;7.20;1.00;;;;;;4972119;28;39929;-80
2024/03/26 01:03:27;;;;;;;8.60;3.17;;;7.20;1.00;;;;;;4970544;28;37671;-81
2024/03/26 01:05:57;;;;;;;9.33;2.97;;;7.10;99.90;;;;;;4953613;28;37954;-80
2024/03/26 01:08:43;;;;;;;15.23;4.27;;;7.10;1.00;;;;;;4962855;28;39359;-80
2024/03/26 01:11:23;;;;;;;7.37;2.80;;;7.10;1.00;;;;;;4980794;28;39631;-80
2024/03/26 01:14:00;;;;;;;5.30;2.67;;;7.10;1.00;;;;;;4983462;28;39985;-81
2024/03/26 01:16:47;;;;;;;10.97;3.20;;;7.00;1.00;;;;;;4977777;28;36390;-78
2024/03/26 01:19:19;;;;;;;7.60;3.17;;;7.00;1.00;;;;;;4968261;28;39921;-80
2024/03/26 01:21:57;;;;;;;10.98;3.45;;;7.00;1.00;;;;;;4968598;28;38041;-80
2024/03/26 01:24:41;;;;;;;9.80;2.60;;;7.00;1.00;;;;;;4966779;28;39463;-80
2024/03/26 01:27:16;;;;;;;8.57;3.03;;;7.00;1.00;;;;;;4967987;28;36634;-79
2024/03/26 01:29:48;;;;;;;8.77;2.70;;;6.90;99.90;;;;;;4942782;28;39281;-79
2024/03/26 01:32:17;;;;;;;11.77;3.28;;;6.80;99.90;;;;;;4963035;28;39514;-79
2024/03/26 01:34:46;;;;;;;10.33;3.47;;;6.80;99.90;;;;;;4969773;28;39535;-80
2024/03/26 01:37:23;;;;;;;9.97;3.03;;;6.80;99.90;;;;;;4958274;28;37656;-80
2024/03/26 01:39:58;;;;;;;8.33;2.80;;;6.80;99.90;;;;;;4972899;28;39205;-80
2024/03/26 01:42:39;;;;;;;9.93;3.43;;;6.80;99.90;;;;;;4944205;28;38250;-79
2024/03/26 01:45:32;;;;;;;11.97;3.10;;;6.70;99.90;;;;;;4970869;28;38395;-80
2024/03/26 01:48:17;;;;;;;11.30;2.60;;;6.70;99.90;;;;;;4965654;28;37347;-80
2024/03/26 01:50:44;;;;;;;6.83;2.50;;;6.80;99.90;;;;;;4948650;28;48547;-81
2024/03/26 01:53:15;;;;;;;7.53;3.30;;;6.80;99.90;;;;;;4954588;28;38606;-79
2024/03/26 01:55:52;;;;;;;9.33;3.50;;;6.70;99.90;;;;;;4967014;28;39793;-79
2024/03/26 01:58:21;;;;;;;8.87;3.03;;;6.60;99.90;;;;;;4959613;28;37773;-80
2024/03/26 02:06:02;;;;;;;12.97;3.30;;;6.60;1.00;;;;;;5561460;23;20047;-81
2024/03/26 02:08:30;;;;;;;7.43;3.23;;;6.60;1.00;;;;;;4970773;28;48543;-79
2024/03/26 02:11:03;;;;;;;11.40;3.17;;;6.50;99.90;;;;;;4982074;28;38432;-79
2024/03/26 02:13:29;;;;;;;7.10;3.00;;;6.60;99.90;;;;;;4972524;28;48386;-81
2024/03/26 02:16:04;;;;;;;9.93;3.23;;;6.60;99.90;;;;;;4975873;28;38291;-79
2024/03/26 02:18:30;;;;;;;7.07;2.73;;;6.50;1.00;;;;;;4975867;28;47459;-79
2024/03/26 02:20:56;;;;;;;9.53;2.90;;;6.50;99.90;;;;;;4992550;28;37986;-79
2024/03/26 02:23:40;;;;;;;12.27;3.00;;;6.50;99.90;;;;;;4977947;28;38588;-79
2024/03/26 02:26:25;;;;;;;6.40;2.70;;;6.50;99.90;;;;;;4977469;28;37468;-80
2024/03/26 02:29:01;;;;;;;8.87;2.97;;;6.50;99.90;;;;;;4978942;28;35659;-79
2024/03/26 02:31:27;;;;;;;14.80;3.23;;;6.50;99.90;;;;;;4984569;28;50221;-80
2024/03/26 02:33:53;;;;;;;8.33;2.60;;;6.40;99.90;;;;;;4980582;28;38482;-80
2024/03/26 02:36:20;;;;;;;10.33;2.77;;;6.50;99.90;;;;;;4971625;28;38370;-80
2024/03/26 02:38:46;;;;;;;14.70;3.13;;;6.40;99.90;;;;;;4974693;28;36283;-79
2024/03/26 02:41:12;;;;;;;13.10;2.67;;;6.50;99.90;;;;;;4970676;28;38277;-79
2024/03/26 02:43:39;;;;;;;8.03;2.90;;;6.50;99.90;;;;;;4975898;28;37516;-79
2024/03/26 02:46:11;;;;;;;6.57;2.87;;;6.50;99.90;;;;;;4977019;28;38834;-79
2024/03/26 02:48:38;;;;;;;6.60;2.45;;;6.50;99.90;;;;;;4974459;28;37255;-79
2024/03/26 02:51:04;;;;;;;13.17;3.37;;;6.50;99.90;;;;;;4975889;28;40563;-79
2024/03/26 02:53:31;;;;;;;9.67;2.97;;;6.60;26.50;;;;;;4991555;28;37505;-79
2024/03/26 02:55:57;;;;;;;12.03;2.80;;;6.50;1.00;;;;;;4977222;28;39594;-79
2024/03/26 02:58:23;;;;;;;8.70;2.87;;;6.60;1.00;;;;;;4977720;28;36430;-79
2024/03/26 03:01:10;;;;;;;9.30;2.83;;;6.70;29.00;;;;;;4982518;28;40194;-79
2024/03/26 03:03:38;;;;;;;9.50;2.57;;;6.60;1.00;;;;;;4972387;28;49150;-79
2024/03/26 03:06:08;;;;;;;10.77;2.70;;;6.70;1.00;;;;;;4972589;28;38415;-79
2024/03/26 03:08:41;;;;;;;8.33;2.80;;;6.70;1.00;;;;;;4971658;28;36126;-80
2024/03/26 03:11:07;;;;;;;;;;;6.70;1.00;;;;;;4974157;28;38116;-79
2024/03/26 03:13:34;;;;;;;8.73;2.73;;;6.70;1.00;;;;;;4975744;28;40115;-79
2024/03/26 03:16:31;;;;;;;7.57;2.90;;;6.70;1.00;;;;;;4979652;28;38364;-80
2024/03/26 03:18:58;;;;;;;8.73;2.70;;;6.70;1.00;;;;;;4982747;28;48480;-81
2024/03/26 03:21:35;;;;;;;10.60;2.40;;;6.70;1.00;;;;;;4968416;28;39020;-81
2024/03/26 03:24:01;;;;;;;13.17;3.57;;;6.70;1.00;;;;;;4973221;28;37684;-79
2024/03/26 03:26:27;;;;;;;9.83;2.70;;;6.70;1.00;;;;;;4969727;28;48044;-80
2024/03/26 03:28:53;;;;;;;8.10;2.80;;;6.60;1.00;;;;;;4965930;28;36239;-79
2024/03/26 03:31:19;;;;;;;8.07;2.83;;;6.60;1.00;;;;;;4970948;28;40280;-79
2024/03/26 03:33:46;;;;;;;8.80;2.87;;;6.60;1.00;;;;;;4979031;28;37454;-78
2024/03/26 03:36:12;;;;;;;6.17;2.67;;;6.60;1.00;;;;;;4971150;28;37824;-80
2024/03/26 03:38:41;;;;;;;8.97;2.70;;;6.60;1.00;;;;;;4995066;28;39048;-80
2024/03/26 03:41:07;;;;;;;8.10;2.80;;;6.60;1.00;;;;;;4981539;28;37516;-79
2024/03/26 03:43:36;;;;;;;8.90;2.70;;;6.50;1.00;;;;;;4973438;28;39958;-80
2024/03/26 03:46:09;;;;;;;6.53;2.53;;;6.50;1.00;;;;;;4977301;28;37750;-79
2024/03/26 03:48:35;;;;;;;;;;;6.40;14.30;;;;;;4978487;28;36312;-78
2024/03/26 03:51:01;;;;;;;10.10;2.60;;;6.40;2.90;;;;;;4987054;28;38760;-80
2024/03/26 03:53:27;;;;;;;7.07;2.47;;;6.40;1.00;;;;;;4976902;28;50329;-79
2024/03/26 03:55:55;;;;;;;5.47;2.70;;;6.40;1.00;;;;;;4981620;28;38197;-82
2024/03/26 03:58:21;;;;;;;7.77;2.90;;;6.40;1.00;;;;;;4980884;28;39885;-80
2024/03/26 04:00:50;;;;;;;9.03;2.73;;;6.40;1.00;;;;;;4993171;28;38574;-80
2024/03/26 04:03:19;;;;;;;11.63;3.27;;;6.30;1.00;;;;;;4979621;28;39276;-80
2024/03/26 04:05:46;;;;;;;9.50;3.10;;;6.30;1.00;;;;;;4979825;28;37200;-79
2024/03/26 04:08:19;;;;;;;8.40;3.13;;;6.30;1.00;;;;;;4988430;28;37139;-79
2024/03/26 04:10:46;;;;;;;9.27;2.70;;;6.30;1.00;;;;;;4978165;28;38919;-79
2024/03/26 04:13:12;;;;;;;6.13;2.77;;;6.30;62.70;;;;;;4985911;28;39824;-80
2024/03/26 04:15:40;;;;;;;8.37;2.80;;;6.20;1.00;;;;;;4980866;28;39398;-80
2024/03/26 04:18:16;;;;;;;12.60;2.90;;;6.20;1.00;;;;;;4997269;28;36789;-79
2024/03/26 04:20:44;;;;;;;8.00;2.73;;;6.20;1.00;;;;;;4976784;28;38475;-80
2024/03/26 04:23:10;;;;;;;12.40;2.90;;;6.20;1.00;;;;;;4975401;28;40991;-80
2024/03/26 04:25:36;;;;;;;7.37;2.67;;;6.10;99.90;;;;;;4999235;28;36878;-79
2024/03/26 04:28:02;;;;;;;8.60;3.10;;;6.10;99.90;;;;;;4978300;28;36941;-80
2024/03/26 04:30:35;;;;;;;7.93;3.30;;;6.10;99.90;;;;;;4982106;28;38920;-79
2024/03/26 04:33:01;;;;;;;9.93;2.83;;;6.00;99.90;;;;;;4988692;28;38635;-79
2024/03/26 04:35:27;;;;;;;11.33;3.97;;;6.00;99.90;;;;;;4980131;28;47521;-80
2024/03/26 04:37:53;;;;;;;9.90;2.90;;;5.90;99.90;;;;;;4996727;28;38358;-79
2024/03/26 04:40:19;;;;;;;10.23;3.10;;;5.90;99.90;;;;;;4986863;28;38569;-80
2024/03/26 04:42:45;;;;;;;10.80;3.00;;;5.90;1.00;;;;;;4994185;28;39522;-80
2024/03/26 04:45:14;;;;;;;10.43;3.50;;;5.80;1.00;;;;;;4976694;28;37770;-80
2024/03/26 04:47:40;;;;;;;7.23;3.07;;;5.80;1.00;;;;;;4985109;28;36983;-80
2024/03/26 04:50:07;;;;;;;4.63;2.47;;;5.80;1.00;;;;;;4984950;28;39250;-81
2024/03/26 04:52:41;;;;;;;7.40;2.87;;;5.70;1.00;;;;;;4992004;28;38978;-80
2024/03/26 04:55:07;;;;;;;7.43;3.27;;;5.70;1.00;;;;;;4977774;28;40117;-81
2024/03/26 04:57:52;;;;;;;8.77;3.40;;;5.70;1.00;;;;;;4980852;28;38505;-79
2024/03/26 05:00:24;;;;;;;7.87;3.67;;;5.60;1.00;;;;;;4981878;28;39956;-81
2024/03/26 05:02:52;;;;;;;7.80;2.80;;;5.60;1.00;;;;;;4972827;28;48308;-80
2024/03/26 05:05:21;;;;;;;12.30;3.53;;;5.60;1.00;;;;;;4972349;28;38597;-81
2024/03/26 05:07:48;;;;;;;12.93;3.27;;;5.60;1.00;;;;;;4977298;28;37651;-81
2024/03/26 05:10:17;;;;;;;9.47;3.13;;;5.60;1.00;;;;;;4969221;28;38345;-81
2024/03/26 05:12:44;;;;;;;8.97;3.50;;;5.60;1.00;;;;;;4970908;28;38414;-80
2024/03/26 05:15:10;;;;;;;9.87;3.73;;;5.50;1.00;;;;;;4987662;28;38725;-81
2024/03/26 05:17:36;;;;;;;8.97;3.43;;;5.40;1.00;;;;;;4976250;28;36851;-81
2024/03/26 05:20:10;;;;;;;6.63;3.63;;;5.40;1.00;;;;;;4980729;28;38650;-81
2024/03/26 05:22:37;;;;;;;11.00;3.50;;;5.40;1.00;;;;;;4973683;28;47051;-80
2024/03/26 05:25:03;;;;;;;13.23;4.03;;;5.40;1.00;;;;;;4982425;28;39448;-80
2024/03/26 05:27:36;;;;;;;8.93;3.43;;;5.40;1.00;;;;;;4981600;28;48657;-79
2024/03/26 05:30:05;;;;;;;7.07;3.27;;;5.40;1.00;;;;;;4977137;28;37538;-80
2024/03/26 05:32:34;;;;;;;10.63;3.57;;;5.40;1.00;;;;;;4984520;28;37532;-80
2024/03/26 05:35:02;;;;;;;9.73;3.30;;;5.40;1.00;;;;;;4972509;28;37860;-82
2024/03/26 05:37:37;;;;;;;10.53;3.57;;;5.40;1.00;;;;;;4970436;28;38172;-80
2024/03/26 05:40:03;;;;;;;11.90;3.53;;;5.40;1.00;;;;;;4956771;28;37610;-79
2024/03/26 05:42:29;;;;;;;11.10;3.83;;;5.40;1.00;;;;;;4962220;28;37382;-81
2024/03/26 05:44:56;;;;;;;9.33;3.57;;;5.50;1.00;;;;;;4972242;28;38114;-80
2024/03/26 05:47:22;;;;;;;7.37;3.47;;;5.50;1.00;;;;;;4974275;28;36140;-80
2024/03/26 05:49:52;;;;;;;11.67;4.73;;;5.50;1.00;;;;;;4972387;28;41376;-80
2024/03/26 05:52:29;;;;;;;7.00;3.30;;;5.50;1.00;;;;;;4964333;28;38829;-80
2024/03/26 05:55:07;;;;;;;7.63;3.50;;;5.50;1.00;;;;;;4967413;28;38879;-80
2024/03/26 06:00:12;;;;;;;13.40;3.67;;;5.50;1.00;;;;;;4981449;23;20031;-81
2024/03/26 06:05:17;;;;;;;9.17;3.27;;;5.60;1.00;;;;;;5300820;23;20062;-83
2024/03/26 06:07:48;;;;;;;11.13;3.70;;;5.70;1.00;;;;;;4936747;28;37941;-81
2024/03/26 06:10:36;;;;;;;11.10;4.23;;;5.70;1.00;;;;;;4914726;28;38585;-80
2024/03/26 06:13:49;;;;;;;10.83;3.10;;;5.80;1.00;;;;;;4946377;28;38556;-81
2024/03/26 06:19:40;;;;;;;8.37;3.13;;;5.90;1.00;;;;;;4929252;28;20051;-76
2024/03/26 06:25:17;;;;;;;10.27;3.47;;;6.10;1.00;;;;;;5954855;23;20034;-79
2024/03/26 06:28:17;;;;;;;7.28;3.42;;;6.10;1.00;;;;;;4929013;28;39659;-80
2024/03/26 06:36:34;;;;;;;7.23;3.83;;;6.20;1.00;;;;;;5810850;23;20237;-80
2024/03/26 06:39:36;;;;;;;10.33;3.80;;;6.20;1.00;;;;;;4981718;28;39218;-81
2024/03/26 07:09:25;;;;;;;7.53;3.63;;;6.50;1.00;;;;;;4985369;23;20150;-80
2024/03/26 07:41:53;;;;;;;9.17;4.27;;;6.90;1.00;;;;;;5167859;23;20028;-81
2024/03/26 07:45:03;;;;;;;5.93;3.60;;;7.00;1.00;;;;;;4909331;28;50251;-81
2024/03/26 07:47:39;;;;;;;9.13;4.05;;;7.00;1.00;;;;;;4953715;28;39155;-78
2024/03/26 07:51:06;;;;;;;9.67;3.90;;;7.10;1.00;;;;;;4922724;28;40028;-81
2024/03/26 07:57:25;;;;;;;6.97;3.70;;;7.20;1.00;;;;;;4967436;28;39782;-81
2024/03/26 08:00:33;;;;;;;10.77;4.00;;;7.30;1.00;;;;;;4896515;28;49392;-80
2024/03/26 08:03:39;;;;;;;8.70;3.43;;;7.40;1.00;;;;;;5354659;23;49424;-80
2024/03/26 08:06:14;;;;;;;8.13;3.73;;;7.40;1.00;;;;;;4957720;28;39609;-80
2024/03/26 08:09:16;;;;;;;11.53;4.17;;;7.50;99.90;;;;;;4972138;28;39304;-81
2024/03/26 08:14:29;;;;;;;8.40;3.80;;;7.60;99.90;;;;;;5684126;23;20208;-81
2024/03/26 08:17:48;;;;;;;7.13;3.40;;;7.70;99.90;;;;;;4975257;28;41312;-80
2024/03/26 08:21:26;;;;;;;6.37;3.47;;;7.80;99.90;;;;;;4910118;28;50134;-81
2024/03/26 08:24:31;;;;;;;5.67;3.60;;;7.90;99.90;;;;;;4953162;28;50292;-80
2024/03/26 08:27:51;;;;;;;8.18;3.78;;;7.90;99.90;;;;;;4959558;28;47202;-81
2024/03/26 08:52:32;;;;;;;7.50;3.60;;;8.90;1.00;;;;;;5282512;23;20058;-80
2024/03/26 08:55:40;;;;;;;5.27;3.33;;;9.00;1.00;;;;;;4959489;28;40764;-81
2024/03/26 09:22:51;;;;;;;5.63;3.40;;;9.30;99.90;;;;;;5526483;23;20040;-81
2024/03/26 10:56:39;;;;;;;9.80;3.25;;;10.80;1.00;;;;;;5167014;23;20097;-81
2024/03/26 10:59:36;;;;;;;6.18;3.33;;;10.90;1.00;;;;;;4877769;29;48770;-81
2024/03/26 11:02:46;;;;;;;6.80;3.47;;;10.90;1.00;;;;;;4897396;29;37542;-80
2024/03/26 11:16:33;;;;;;;7.05;3.65;;;10.90;1.00;;;;;;5486008;24;20057;-82
2024/03/26 11:27:16;;;;;;;7.75;3.65;;;11.00;1.00;;;;;;5529912;23;20087;-81
2024/03/26 11:32:52;;;;;;;7.50;3.58;;;11.00;99.90;;;;;;5720179;23;20064;-81
2024/03/26 11:36:01;;;;;;;9.32;4.15;;;11.00;86.90;;;;;;4878668;29;38660;-81
2024/03/26 11:38:47;;;;;;;6.15;3.70;;;11.20;1.00;;;;;;4896079;28;40034;-81
2024/03/26 11:41:53;;;;;;;6.13;3.13;;;11.30;99.90;;;;;;4873079;29;38729;-82
2024/03/26 11:44:48;;;;;;;6.80;3.63;;;11.40;99.90;;;;;;4883377;29;39475;-82
2024/03/26 11:48:13;;;;;;;8.20;4.00;;;11.40;23.20;;;;;;4858254;29;37908;-83
2024/03/26 11:51:27;;;;;;;6.68;3.60;;;11.30;99.90;;;;;;4871241;29;49802;-82
2024/03/26 11:54:26;;;;;;;9.70;4.63;;;11.40;99.90;;;;;;4879111;28;38514;-82
2024/03/26 11:57:26;;;;;;;6.97;3.80;;;11.70;1.00;;;;;;4878160;28;39516;-81
2024/03/26 12:19:25;;;;;;;6.95;3.50;;;12.40;99.90;;;;;;4969505;23;20037;-82
2024/03/26 12:22:47;;;;;;;8.73;3.90;;;12.30;1.00;;;;;;4878301;29;49592;-81
2024/03/26 12:29:35;;;;;;;9.10;3.75;;;12.80;1.00;;;;;;4871322;28;50775;-80
2024/03/26 12:36:10;;;;;;;7.63;3.95;;;12.90;99.90;;;;;;4877859;29;50751;-80
2024/03/26 12:39:23;;;;;;;7.35;3.75;;;12.50;1.00;;;;;;4873156;28;50241;-81
2024/03/26 12:42:13;;;;;;;7.38;4.20;;;12.70;99.90;;;;;;4872126;29;40017;-81
2024/03/26 12:45:07;;;;;;;9.57;4.05;;;13.20;1.00;;;;;;4903927;28;39541;-82
2024/03/26 12:48:05;;;;;;;6.22;3.67;;;13.40;10.30;;;;;;4862514;29;49025;-81
2024/03/26 12:51:05;;;;;;;12.68;4.03;;;13.30;99.90;;;;;;4884740;29;48511;-81
2024/03/26 12:53:57;;;;;;;8.57;3.80;;;13.50;1.00;;;;;;4895328;29;48950;-81
2024/03/26 12:56:36;;;;;;;9.57;4.00;;;13.30;1.00;;;;;;4859905;29;38684;-81
2024/03/26 13:06:03;;;;;;;11.33;4.90;;;13.00;7.30;;;;;;4877364;28;50679;-80
2024/03/26 13:14:13;;;;;;;7.55;4.00;;;12.80;1.00;;;;;;5202852;23;20085;-79
2024/03/26 13:17:10;;;;;;;5.38;3.67;;;12.80;1.00;;;;;;4875688;29;39373;-81
2024/03/26 13:22:47;;;;;;;7.78;4.15;;;12.70;1.00;;;;;;4879138;28;48952;-82
2024/03/26 13:25:39;;;;;;;9.25;4.50;;;12.60;22.30;;;;;;4887282;28;38950;-82
2024/03/26 13:28:29;;;;;;;9.32;4.40;;;12.80;1.00;;;;;;4865566;29;39934;-80
2024/03/26 13:31:23;;;;;;;9.43;4.80;;;12.90;99.90;;;;;;4873844;29;39602;-81
2024/03/26 13:34:01;;;;;;;8.60;4.90;;;12.90;1.00;;;;;;4844216;29;48967;-81
2024/03/26 13:36:41;;;;;;;8.18;4.55;;;12.80;1.00;;;;;;4845623;29;50204;-80
2024/03/26 13:39:39;;;;;;;8.75;4.18;;;13.00;61.30;;;;;;4857047;29;39609;-81
2024/03/26 13:42:24;;;;;;;7.25;4.00;;;13.00;96.80;;;;;;4861401;29;38864;-80
2024/03/26 13:44:57;;;;;;;9.10;4.35;;;13.10;99.90;;;;;;4874522;29;38683;-80
2024/03/26 13:47:58;;;;;;;6.65;4.03;;;13.10;61.10;;;;;;4861101;29;39219;-82
2024/03/26 13:50:28;;;;;;;10.63;5.25;;;13.10;1.00;;;;;;4838479;29;38821;-81
2024/03/26 13:53:06;;;;;;;8.23;4.38;;;12.90;1.00;;;;;;4876429;29;37827;-85
2024/03/26 13:55:48;;;;;;;6.15;3.80;;;12.80;1.00;;;;;;4881381;29;50028;-81
2024/03/26 13:58:29;;;;;;;6.00;4.13;;;12.90;1.00;;;;;;4867241;29;40246;-81
2024/03/26 14:01:01;;;;;;;10.10;3.97;;;13.00;1.00;;;;;;4879704;29;39901;-80
2024/03/26 14:03:34;;;;;;;7.93;4.30;;;12.80;1.00;;;;;;4845639;29;48853;-80
2024/03/26 14:06:17;;;;;;;9.90;4.07;;;12.90;1.00;;;;;;4870631;29;37320;-81
2024/03/26 14:08:47;;;;;;;8.30;4.05;;;12.80;94.20;;;;;;4874812;29;39304;-81
2024/03/26 14:11:49;;;;;;;6.82;4.03;;;12.80;47.60;;;;;;4877542;29;38400;-81
2024/03/26 14:14:35;;;;;;;8.60;4.22;;;12.80;1.00;;;;;;4865538;29;38839;-80
2024/03/26 14:17:41;;;;;;;7.60;3.80;;;13.00;99.90;;;;;;4876533;29;38237;-81
2024/03/26 14:20:11;;;;;;;11.52;4.82;;;12.90;1.00;;;;;;4846666;29;38224;-80
2024/03/26 14:22:43;;;;;;;9.70;4.53;;;12.80;49.70;;;;;;4864872;29;39880;-80
2024/03/26 14:25:15;;;;;;;7.38;4.00;;;12.80;28.40;;;;;;4870376;29;38338;-80
2024/03/26 14:27:49;;;;;;;6.20;3.97;;;12.90;99.90;;;;;;4866924;29;39852;-80
2024/03/26 14:30:23;;;;;;;8.38;3.90;;;13.10;99.90;;;;;;4875973;29;38181;-81
2024/03/26 14:33:12;;;;;;;9.52;4.22;;;13.00;39.70;;;;;;4854067;29;50168;-80
2024/03/26 14:36:10;;;;;;;6.30;3.80;;;12.80;48.00;;;;;;4884733;29;37969;-81
2024/03/26 14:38:38;;;;;;;10.35;3.97;;;12.80;76.00;;;;;;4873052;29;47461;-81
2024/03/26 14:41:07;;;;;;;7.47;3.90;;;12.80;68.20;;;;;;4878488;29;38687;-80
2024/03/26 14:43:54;;;;;;;7.55;3.55;;;12.80;99.90;;;;;;4887383;29;38967;-81
2024/03/26 14:46:26;;;;;;;10.13;4.10;;;12.80;99.90;;;;;;4889558;29;39551;-80
2024/03/26 14:49:29;;;;;;;7.25;3.90;;;12.80;99.90;;;;;;4890512;29;37283;-81
2024/03/26 14:51:59;;;;;;;8.15;4.18;;;12.80;99.90;;;;;;4908688;28;47347;-80
2024/03/26 14:54:38;;;;;;;6.60;4.47;;;12.60;99.90;;;;;;4886708;29;38628;-80
2024/03/26 14:57:05;;;;;;;8.60;4.18;;;12.50;99.90;;;;;;4881638;28;37699;-80
2024/03/26 14:59:36;;;;;;;7.47;4.15;;;12.50;99.90;;;;;;4891668;29;50096;-80
2024/03/26 15:02:06;;;;;;;7.28;4.25;;;12.50;1.00;;;;;;4890522;29;39205;-80
2024/03/26 15:04:35;;;;;;;7.18;3.67;;;12.50;48.00;;;;;;4901725;29;47742;-81
2024/03/26 15:07:13;;;;;;;8.00;4.07;;;12.50;1.00;;;;;;4895267;28;38724;-81
2024/03/26 15:09:43;;;;;;;5.95;3.85;;;12.50;1.00;;;;;;4904399;29;48707;-80
2024/03/26 15:12:12;;;;;;;8.00;4.10;;;12.50;1.00;;;;;;4893669;29;38906;-81
2024/03/26 15:14:41;;;;;;;10.85;4.00;;;12.70;1.00;;;;;;4891319;29;38337;-82
2024/03/26 15:17:23;;;;;;;7.80;4.18;;;12.80;1.00;;;;;;4881213;29;38049;-81
2024/03/26 15:20:02;;;;;;;11.65;4.57;;;13.00;1.00;;;;;;4894943;28;37656;-81
2024/03/26 15:22:39;;;;;;;11.23;4.47;;;13.00;1.00;;;;;;4884367;28;39467;-81
2024/03/26 15:25:12;;;;;;;11.80;4.13;;;13.00;1.00;;;;;;4892153;28;38884;-81
2024/03/26 15:33:23;;;;;;;7.22;3.38;;;13.10;1.00;;;;;;4903740;28;40512;-81
2024/03/26 15:35:59;;;;;;;6.25;3.63;;;12.90;1.00;;;;;;4895114;29;39144;-81
2024/03/26 15:38:45;;;;;;;8.88;3.47;;;12.90;1.00;;;;;;4880169;29;38244;-82
2024/03/26 15:43:51;;;;;;;10.15;3.83;;;12.90;1.00;;;;;;5029054;23;20070;-81
2024/03/26 15:46:39;;;;;;;6.93;3.83;;;12.90;1.00;;;;;;4871676;29;40023;-82
2024/03/26 15:49:17;;;;;;;7.45;3.55;;;13.00;1.00;;;;;;4902671;28;38808;-81
2024/03/26 15:52:20;;;;;;;6.60;3.50;;;13.00;1.00;;;;;;4890361;28;38843;-80
2024/03/26 15:54:52;;;;;;;7.57;4.30;;;13.20;1.00;;;;;;4857768;28;48454;-81
2024/03/26 16:04:45;;;;;;;6.18;3.92;;;13.10;1.00;;;;;;4864810;29;50689;-80
2024/03/26 16:08:00;;;;;;;8.05;3.80;;;13.00;1.00;;;;;;4889686;29;48854;-81
2024/03/26 16:10:35;;;;;;;5.97;3.65;;;13.10;1.00;;;;;;4891367;28;38426;-80
2024/03/26 16:13:30;;;;;;;5.63;3.63;;;13.20;1.00;;;;;;4874157;28;38189;-80
2024/03/26 16:16:00;;;;;;;9.88;4.18;;;13.10;1.00;;;;;;4893981;29;50292;-82
2024/03/26 16:18:47;;;;;;;7.40;3.58;;;13.00;1.00;;;;;;4892001;29;42518;-81
2024/03/26 16:21:16;;;;;;;10.55;4.22;;;13.00;99.90;;;;;;4885114;29;37997;-80
2024/03/26 16:23:46;;;;;;;11.57;4.55;;;13.00;80.20;;;;;;4892482;28;38813;-81
2024/03/26 16:26:18;;;;;;;7.47;3.90;;;12.90;99.90;;;;;;4906241;28;37797;-81
2024/03/26 16:28:50;;;;;;;9.00;4.68;;;12.80;1.00;;;;;;4876132;29;40335;-80
2024/03/26 16:31:31;;;;;;;9.52;4.50;;;12.70;1.00;;;;;;4893396;29;38846;-81
2024/03/26 16:34:02;;;;;;;9.40;4.70;;;12.70;48.60;;;;;;4903990;29;37573;-79
2024/03/26 16:36:32;;;;;;;9.50;4.40;;;12.70;99.90;;;;;;4895973;29;48847;-80
2024/03/26 16:39:05;;;;;;;9.93;4.90;;;12.70;1.00;;;;;;4891515;29;39357;-81
2024/03/26 16:41:43;;;;;;;8.57;4.72;;;12.60;1.00;;;;;;4888660;28;50052;-80
2024/03/26 16:44:20;;;;;;;7.20;4.65;;;12.60;99.90;;;;;;4869527;28;39342;-80
2024/03/26 16:49:48;;;;;;;7.38;4.97;;;12.70;1.00;;;;;;4626755;23;20029;-81
2024/03/26 16:54:59;;;;;;;9.18;4.78;;;12.70;1.00;;;;;;5069695;23;20052;-82
2024/03/26 16:58:07;;;;;;;9.18;4.47;;;12.70;1.00;;;;;;4904151;23;37596;-82
2024/03/26 17:01:12;;;;;;;8.98;4.32;;;12.70;22.50;;;;;;4859126;28;50120;-81
2024/03/26 17:04:22;;;;;;;9.00;4.90;;;12.70;99.90;;;;;;4880713;29;50123;-81
2024/03/26 17:07:08;;;;;;;8.35;4.40;;;12.80;1.00;;;;;;4854194;28;51233;-82
2024/03/26 17:10:08;;;;;;;7.10;5.20;;;12.80;1.00;;;;;;4839681;29;50258;-81
2024/03/26 17:13:11;;;;;;;8.85;4.80;;;12.80;99.90;;;;;;4843447;29;49501;-82
2024/03/26 17:16:11;;;;;;;7.75;5.07;;;12.80;99.90;;;;;;4874536;28;50414;-81
2024/03/26 17:21:58;;;;;;;8.35;5.18;;;12.70;99.90;;;;;;5316441;23;20060;-82
2024/03/26 17:25:00;;;;;;;9.55;5.55;;;12.70;1.00;;;;;;4879829;29;48966;-81
2024/03/26 17:27:30;;;;;;;;;;;12.60;1.00;;;;;;4856598;29;39112;-80
2024/03/26 17:30:27;;;;;;;11.30;5.57;;;12.60;9.10;;;;;;4862833;29;35528;-80
2024/03/26 17:32:56;;;;;;;12.02;5.45;;;12.50;1.00;;;;;;4868052;29;50354;-80
2024/03/26 17:35:42;;;;;;;9.10;5.60;;;12.40;99.90;;;;;;4867807;29;48229;-79
2024/03/26 17:38:10;;;;;;;12.15;4.97;;;12.40;66.20;;;;;;4856356;29;40596;-80
2024/03/26 17:40:40;;;;;;;9.55;4.82;;;12.30;1.00;;;;;;4851404;29;41546;-80
2024/03/26 17:43:19;;;;;;;9.25;5.10;;;12.30;1.00;;;;;;4870893;29;37949;-79
2024/03/26 17:45:48;;;;;;;10.85;5.90;;;12.30;99.90;;;;;;4875341;29;39878;-79
2024/03/26 17:48:15;;;;;;;9.35;4.95;;;12.20;1.00;;;;;;4870490;29;39655;-80
2024/03/26 17:50:42;;;;;;;9.25;5.32;;;12.10;91.50;;;;;;4887961;29;38537;-80
2024/03/26 17:53:08;;;;;;;11.25;4.95;;;12.10;1.00;;;;;;4867961;29;39417;-79
2024/03/26 17:55:36;;;;;;;10.40;5.65;;;12.00;1.00;;;;;;4873755;29;38471;-78
2024/03/26 17:58:03;;;;;;;10.70;5.03;;;12.00;99.90;;;;;;4861579;29;38715;-78
2024/03/26 18:00:33;;;;;;;10.50;6.15;;;11.90;99.90;;;;;;4873598;29;48017;-80
2024/03/26 18:02:59;;;;;;;9.60;5.80;;;11.90;1.00;;;;;;4873766;29;39918;-79
2024/03/26 18:05:39;;;;;;;10.18;5.75;;;11.80;1.00;;;;;;4871544;29;38563;-80
2024/03/26 18:08:12;;;;;;;11.27;5.40;;;11.80;1.00;;;;;;4856791;29;37744;-80
2024/03/26 18:10:41;;;;;;;10.73;5.65;;;11.70;99.90;;;;;;4854416;29;37493;-80
2024/03/26 18:13:10;;;;;;;8.55;6.03;;;11.60;99.90;;;;;;4869872;29;36487;-80
2024/03/26 18:15:49;;;;;;;12.32;6.38;;;11.60;99.90;;;;;;4872231;29;39339;-80
2024/03/26 18:18:23;;;;;;;9.68;5.88;;;11.70;99.90;;;;;;4855312;29;37821;-80
2024/03/26 18:20:57;;;;;;;10.20;5.75;;;11.70;99.90;;;;;;4871054;29;38396;-81
2024/03/26 18:23:24;;;;;;;9.70;6.53;;;11.70;99.90;;;;;;4877730;29;36810;-81
2024/03/26 18:26:04;;;;;;;9.90;6.15;;;11.80;99.90;;;;;;4879653;29;38199;-81
2024/03/26 18:28:31;;;;;;;10.60;6.03;;;11.80;99.90;;;;;;4871944;29;48075;-80
2024/03/26 18:30:59;;;;;;;13.60;6.53;;;11.80;1.00;;;;;;4875626;29;37602;-80
2024/03/26 18:33:28;;;;;;;10.95;6.13;;;11.80;1.00;;;;;;4867035;29;38046;-81
2024/03/26 18:36:01;;;;;;;10.73;6.47;;;11.90;1.00;;;;;;4872442;29;38495;-80
2024/03/26 18:38:28;;;;;;;;;;;11.90;1.00;;;;;;4866309;29;38301;-81
2024/03/26 18:41:00;;;;;;;12.15;6.43;;;11.90;1.00;;;;;;4876488;29;37481;-80
2024/03/26 18:43:27;;;;;;;17.35;9.65;;;11.90;1.00;;;;;;4873626;29;35915;-80
2024/03/26 18:45:54;;;;;;;11.98;8.07;;;11.90;1.00;;;;;;4870425;29;38240;-81
2024/03/26 18:48:21;;;;;;;14.43;7.80;;;11.90;1.00;;;;;;4890968;29;36821;-80
2024/03/26 18:50:54;;;;;;;19.20;11.30;;;11.90;1.00;;;;;;4875917;29;37372;-81
2024/03/26 18:53:21;;;;;;;17.77;10.68;;;11.90;1.00;;;;;;4860340;29;36832;-79
2024/03/26 18:56:04;;;;;;;16.73;9.52;;;11.90;1.00;;;;;;4870719;29;38777;-80
2024/03/26 18:58:33;;;;;;;15.20;10.48;;;11.90;1.00;;;;;;4874280;29;46898;-80
2024/03/26 19:01:02;;;;;;;21.40;13.32;;;11.90;1.00;;;;;;4875128;29;38387;-84
2024/03/26 19:03:29;;;;;;;15.00;9.68;;;11.90;1.00;;;;;;4875174;29;47845;-80